メインページ
METAR-TAF:

METAR-TAF

空港 :

Buffalo Narrows, マニトバ州, カナダ

緯度: 55-50N, 経度: 108-27W, 海抜: 434m

現時点の気象観測

当レポートは41分前の10:00(UTC)に作成
南/南西の風 6kt
気温 17°C
湿度 77%
気圧 1011 hPa
視程: 14.5km
晴天

METAR: CYVT 051000Z AUTO 20006KT 9SM CLR 17/13 A2985 RMK SLP114 DENSITY ALT 2000FT

時間: 05:41 (10:41 UTC)

予報

当レポートは14時間3分前の20:38(UTC)に作成
予報は04日の 21時(UTC)から 05日の 04時(UTC)まで有効
西/北西の風 10kt
視程: 10km
晴天

TAF: CYVT 042038Z 0421/0504 29010KT P6SM SKC RMK FCST BASED ON AUTO OBS. NXT FCST WILL BE ISSUED AT 051345Z

4,000以上の空港の気象観測と天気予報(METAR報とTAF報)

利用可能な観測所は地図上に黄色い丸と赤い丸で示す。

丸の上にカーソルを重ねると観測所名を参照できる。

次にクリックすると気象観測と天気予報を参照できる。

マップの切り替え:黒色「×」印の緑ボタンをクリックして拡大、「-」印の緑ボタンをクリックして縮小、緑色の三角印をクリックして隣りの地図に切り替え


METAR-TAF: